Pagina principale
METAR-TAF:

METAR-TAF

Aeroporti :

Castrignano del Capo, Italia

Santa Maria di Leuca

latitudine: 39-49N, longitudine: 018-21E, altezza: 104 m

Osservazione

Il bollettino è stato emesso 38 minuti fa, alle 08:55 UTC
Vento 4 kt da ovest/sud-ovest
Temperature 23°C
Umidità 57%
Pressione 1017 hPa
Visibilità 10 km o più
Poco nuvoloso ad un'altezza di 2000 ft

METAR: LIBY 290855Z 24004KT 9999 FEW020 23/14 Q1017 RMK FEW QUK 1 QUL 0 VIS MAR 20 KM VIS MIN 9999

Ora: 11:33 (09:33 UTC)


TAF: mancante

Osservazioni e previsioni meteorologiche di più di 4000 aeroporti (messaggi METAR e TAF).

Le stazioni disponibili sono rappresentate dai dischi gialli e rossi sulla carta.

Puntare il mouse per vedere il nome della stazione.

Clicca sopra per visualizzare le osservazioni e previsioni meteorologiche.

Per cambiare la mappa : fare clic sui pulsanti verdi con una croce nera per ingrandire, il pulsante verde con un trattino per diminuire, o sulla freccia verde per le mappe adiacenti.


METAR-TAF: